createdAt,value
2018-06-18T00:00:09.422Z,1007.66
2018-06-18T00:01:09.390Z,1007.65
2018-06-18T00:02:09.402Z,1007.66
2018-06-18T00:03:09.427Z,1007.65
2018-06-18T00:04:09.471Z,1007.66
2018-06-18T00:05:09.467Z,1007.67
2018-06-18T00:06:09.481Z,1007.66
2018-06-18T00:07:09.512Z,1007.70
2018-06-18T00:08:09.527Z,1007.68
2018-06-18T00:09:09.545Z,1007.65
2018-06-18T00:10:09.563Z,1007.63
2018-06-18T00:11:09.671Z,1007.64
2018-06-18T00:12:09.658Z,1007.62
2018-06-18T00:13:09.627Z,1007.59
2018-06-18T00:14:09.647Z,1007.57
2018-06-18T00:15:09.663Z,1007.60
2018-06-18T00:16:09.686Z,1007.56
2018-06-18T00:17:09.752Z,1007.60
2018-06-18T00:18:09.773Z,1007.64
2018-06-18T00:19:09.741Z,1007.60
2018-06-18T00:20:09.762Z,1007.63
2018-06-18T00:21:09.785Z,1007.66
2018-06-18T00:22:09.799Z,1007.63
2018-06-18T00:23:09.870Z,1007.67
2018-06-18T00:24:09.846Z,1007.65
2018-06-18T00:25:09.863Z,1007.60
2018-06-18T00:26:09.886Z,1007.60
2018-06-18T00:27:09.900Z,1007.60
2018-06-18T00:28:09.924Z,1007.58
2018-06-18T00:29:09.944Z,1007.59
2018-06-18T00:30:10.032Z,1007.59
2018-06-18T00:31:09.977Z,1007.59
2018-06-18T00:32:09.999Z,1007.53
2018-06-18T00:33:10.021Z,1007.55
2018-06-18T00:34:10.043Z,1007.54
2018-06-18T00:35:10.109Z,1007.53
2018-06-18T00:36:10.112Z,1007.53
2018-06-18T00:37:10.101Z,1007.53
2018-06-18T00:38:10.124Z,1007.54
2018-06-18T00:39:10.140Z,1007.55
2018-06-18T00:40:10.164Z,1007.51
2018-06-18T00:41:10.186Z,1007.51
2018-06-18T00:42:10.295Z,1007.49
2018-06-18T00:43:10.232Z,1007.49
2018-06-18T00:44:10.239Z,1007.49
2018-06-18T00:45:10.275Z,1007.51
2018-06-18T00:46:10.280Z,1007.48
2018-06-18T00:47:10.304Z,1007.49
2018-06-18T00:48:10.351Z,1007.47
2018-06-18T00:49:10.338Z,1007.50
2018-06-18T00:50:10.362Z,1007.47
2018-06-18T00:51:10.393Z,1007.45
2018-06-18T00:52:10.407Z,1007.44
2018-06-18T00:53:10.424Z,1007.42
2018-06-18T00:54:10.447Z,1007.42
2018-06-18T00:55:10.462Z,1007.42
2018-06-18T00:56:10.481Z,1007.39
2018-06-18T00:57:10.502Z,1007.38
2018-06-18T00:58:10.520Z,1007.37
2018-06-18T00:59:10.536Z,1007.33
2018-06-18T01:00:10.613Z,1007.34
2018-06-18T01:01:10.592Z,1007.32
2018-06-18T01:02:10.598Z,1007.31
2018-06-18T01:03:10.621Z,1007.31
2018-06-18T01:04:10.642Z,1007.31
2018-06-18T01:05:10.664Z,1007.30
2018-06-18T01:06:10.733Z,1007.32
2018-06-18T01:07:10.710Z,1007.30
2018-06-18T01:08:10.720Z,1007.29
2018-06-18T01:09:10.741Z,1007.29
2018-06-18T01:10:10.764Z,1007.28
2018-06-18T01:11:10.783Z,1007.27
2018-06-18T01:12:10.847Z,1007.24
2018-06-18T01:13:10.821Z,1007.26
2018-06-18T01:14:10.844Z,1007.24
2018-06-18T01:15:10.867Z,1007.21
2018-06-18T01:16:10.880Z,1007.20
2018-06-18T01:17:10.900Z,1007.22
2018-06-18T01:18:10.968Z,1007.26
2018-06-18T01:19:10.935Z,1007.21
2018-06-18T01:20:10.959Z,1007.23
2018-06-18T01:21:10.980Z,1007.24
2018-06-18T01:22:10.995Z,1007.26
2018-06-18T01:23:11.024Z,1007.26
2018-06-18T01:24:11.043Z,1007.25
2018-06-18T01:25:11.061Z,1007.28
2018-06-18T01:26:11.123Z,1007.28
2018-06-18T01:27:11.095Z,1007.28
2018-06-18T01:28:11.113Z,1007.28
2018-06-18T01:29:11.137Z,1007.32
2018-06-18T01:30:11.209Z,1007.29
2018-06-18T01:31:11.179Z,1007.31
2018-06-18T01:32:11.201Z,1007.32
2018-06-18T01:33:11.214Z,1007.30
2018-06-18T01:34:11.233Z,1007.28
2018-06-18T01:35:11.262Z,1007.28
2018-06-18T01:36:11.330Z,1007.32
2018-06-18T01:37:11.296Z,1007.29
2018-06-18T01:38:11.315Z,1007.31
2018-06-18T01:39:11.341Z,1007.25
2018-06-18T01:40:11.357Z,1007.26
2018-06-18T01:41:11.374Z,1007.26
2018-06-18T01:42:11.409Z,1007.26
2018-06-18T01:43:11.412Z,1007.24
2018-06-18T01:44:11.439Z,1007.23
2018-06-18T01:45:11.460Z,1007.23
2018-06-18T01:46:11.482Z,1007.24
2018-06-18T01:47:11.499Z,1007.21
2018-06-18T01:48:11.521Z,1007.17
2018-06-18T01:49:11.538Z,1007.21
2018-06-18T01:50:11.556Z,1007.20
2018-06-18T01:51:11.578Z,1007.18
2018-06-18T01:52:11.599Z,1007.14
2018-06-18T01:53:11.617Z,1007.17
2018-06-18T01:54:11.641Z,1007.14
2018-06-18T01:55:11.659Z,1007.14
2018-06-18T01:56:11.681Z,1007.13
2018-06-18T01:57:11.702Z,1007.11
2018-06-18T01:58:11.718Z,1007.07
2018-06-18T01:59:11.740Z,1007.09
2018-06-18T02:00:11.759Z,1007.07
2018-06-18T02:01:11.780Z,1007.07
2018-06-18T02:02:11.801Z,1007.07
2018-06-18T02:03:11.820Z,1007.00
2018-06-18T02:04:11.834Z,1007.03
2018-06-18T02:05:11.859Z,1006.94
2018-06-18T02:06:11.925Z,1006.94
2018-06-18T02:07:11.897Z,1006.96
2018-06-18T02:08:11.917Z,1006.94
2018-06-18T02:09:11.998Z,1006.96
2018-06-18T02:10:11.958Z,1006.94
2018-06-18T02:11:11.977Z,1006.94
2018-06-18T02:12:12.045Z,1006.97
2018-06-18T02:13:12.013Z,1006.93
2018-06-18T02:14:12.038Z,1006.95
2018-06-18T02:15:12.056Z,1006.95
2018-06-18T02:16:12.127Z,1006.94
2018-06-18T02:17:12.094Z,1006.92
2018-06-18T02:18:12.166Z,1006.92
2018-06-18T02:19:12.141Z,1006.93
2018-06-18T02:20:12.157Z,1006.94
2018-06-18T02:21:12.175Z,1006.92
2018-06-18T02:22:12.194Z,1006.90
2018-06-18T02:23:12.217Z,1006.92
2018-06-18T02:24:12.286Z,1006.90
2018-06-18T02:25:12.257Z,1006.88
2018-06-18T02:26:12.279Z,1006.86
2018-06-18T02:27:12.292Z,1006.90
2018-06-18T02:28:12.318Z,1006.85
2018-06-18T02:29:12.333Z,1006.86
2018-06-18T02:30:12.404Z,1006.86
2018-06-18T02:31:12.372Z,1006.87
2018-06-18T02:32:12.399Z,1006.86
2018-06-18T02:33:12.415Z,1006.88
2018-06-18T02:34:12.433Z,1006.87
2018-06-18T02:35:12.456Z,1006.87
2018-06-18T02:36:12.528Z,1006.84
2018-06-18T02:37:12.506Z,1006.86
2018-06-18T02:38:12.517Z,1006.87
2018-06-18T02:39:12.540Z,1006.86
2018-06-18T02:40:12.571Z,1006.84
2018-06-18T02:41:12.575Z,1006.84
2018-06-18T02:42:12.650Z,1006.86
2018-06-18T02:43:12.616Z,1006.83
2018-06-18T02:44:12.711Z,1006.85
2018-06-18T02:45:12.653Z,1006.84
2018-06-18T02:46:12.691Z,1006.83
2018-06-18T02:47:12.696Z,1006.84
2018-06-18T02:48:12.765Z,1006.88
2018-06-18T02:49:12.736Z,1006.86
2018-06-18T02:50:12.751Z,1006.89
2018-06-18T02:51:12.773Z,1006.86
2018-06-18T02:52:12.837Z,1006.90
2018-06-18T02:53:12.818Z,1006.91
2018-06-18T02:54:12.834Z,1006.93
2018-06-18T02:55:12.855Z,1006.93
2018-06-18T02:56:12.875Z,1006.91
2018-06-18T02:57:12.892Z,1006.93
2018-06-18T02:58:12.956Z,1006.94
2018-06-18T02:59:12.934Z,1006.92
2018-06-18T03:00:12.957Z,1006.91
2018-06-18T03:01:12.969Z,1006.89
2018-06-18T03:02:12.992Z,1006.92
2018-06-18T03:03:13.018Z,1006.89
2018-06-18T03:04:13.033Z,1006.89
2018-06-18T03:05:13.053Z,1006.88
2018-06-18T03:06:13.172Z,1006.90
2018-06-18T03:07:13.092Z,1006.86
2018-06-18T03:08:13.116Z,1006.84
2018-06-18T03:09:13.136Z,1006.86
2018-06-18T03:10:13.157Z,1006.90
2018-06-18T03:11:13.177Z,1006.87
2018-06-18T03:12:13.194Z,1006.84
2018-06-18T03:13:13.216Z,1006.87
2018-06-18T03:14:13.238Z,1006.86
2018-06-18T03:15:13.257Z,1006.86
2018-06-18T03:16:13.275Z,1006.84
2018-06-18T03:17:13.365Z,1006.87
2018-06-18T03:18:13.364Z,1006.87
2018-06-18T03:19:13.337Z,1006.87
2018-06-18T03:20:13.352Z,1006.83
2018-06-18T03:21:13.375Z,1006.81
2018-06-18T03:22:13.492Z,1006.81
2018-06-18T03:23:13.444Z,1006.82
2018-06-18T03:24:13.482Z,1006.77
2018-06-18T03:25:13.454Z,1006.79
2018-06-18T03:26:13.472Z,1006.77
2018-06-18T03:27:13.496Z,1006.78
2018-06-18T03:28:13.510Z,1006.76
2018-06-18T03:29:13.606Z,1006.72
2018-06-18T03:30:13.608Z,1006.74
2018-06-18T03:31:13.574Z,1006.71
2018-06-18T03:32:13.595Z,1006.74
2018-06-18T03:33:13.613Z,1006.69
2018-06-18T03:34:13.634Z,1006.69
2018-06-18T03:35:13.655Z,1006.68
2018-06-18T03:36:13.721Z,1006.65
2018-06-18T03:37:13.707Z,1006.64
2018-06-18T03:38:13.714Z,1006.63
2018-06-18T03:39:13.731Z,1006.62
2018-06-18T03:40:13.755Z,1006.62
2018-06-18T03:41:13.767Z,1006.65
2018-06-18T03:42:13.872Z,1006.62
2018-06-18T03:43:13.813Z,1006.62
2018-06-18T03:44:13.831Z,1006.63
2018-06-18T03:45:13.849Z,1006.64
2018-06-18T03:46:13.872Z,1006.65
2018-06-18T03:47:13.923Z,1006.62
2018-06-18T03:48:14.038Z,1006.62
2018-06-18T03:49:13.928Z,1006.59
2018-06-18T03:50:13.950Z,1006.58
2018-06-18T03:51:13.968Z,1006.57
2018-06-18T03:52:13.991Z,1006.56
2018-06-18T03:53:14.017Z,1006.53
2018-06-18T03:54:14.051Z,1006.53
2018-06-18T03:55:14.048Z,1006.49
2018-06-18T03:56:14.071Z,1006.49
2018-06-18T03:57:14.093Z,1006.47
2018-06-18T03:58:14.106Z,1006.50
2018-06-18T03:59:14.135Z,1006.49
2018-06-18T04:00:14.201Z,1006.47
2018-06-18T04:01:14.165Z,1006.50
2018-06-18T04:02:14.190Z,1006.47
2018-06-18T04:03:14.206Z,1006.47
2018-06-18T04:04:14.223Z,1006.52
2018-06-18T04:05:14.261Z,1006.50
2018-06-18T04:06:14.319Z,1006.52
2018-06-18T04:07:14.289Z,1006.50
2018-06-18T04:08:14.309Z,1006.50
2018-06-18T04:09:14.325Z,1006.51
2018-06-18T04:10:14.350Z,1006.50
2018-06-18T04:11:14.370Z,1006.51
2018-06-18T04:12:14.455Z,1006.51
2018-06-18T04:13:14.453Z,1006.52
2018-06-18T04:14:14.425Z,1006.53
2018-06-18T04:15:14.448Z,1006.57
2018-06-18T04:16:14.467Z,1006.53
2018-06-18T04:17:14.490Z,1006.51
2018-06-18T04:18:14.554Z,1006.52
2018-06-18T04:19:14.527Z,1006.52
2018-06-18T04:20:14.550Z,1006.51
2018-06-18T04:21:14.562Z,1006.52
2018-06-18T04:22:14.588Z,1006.59
2018-06-18T04:23:14.603Z,1006.58
2018-06-18T04:24:14.677Z,1006.56
2018-06-18T04:25:14.648Z,1006.60
2018-06-18T04:26:14.661Z,1006.60
2018-06-18T04:27:14.685Z,1006.58
2018-06-18T04:28:14.706Z,1006.59
2018-06-18T04:29:14.726Z,1006.57
2018-06-18T04:30:14.794Z,1006.56
2018-06-18T04:31:14.771Z,1006.53
2018-06-18T04:32:14.867Z,1006.57
2018-06-18T04:33:14.804Z,1006.56
2018-06-18T04:34:14.827Z,1006.54
2018-06-18T04:35:14.843Z,1006.54
2018-06-18T04:36:14.918Z,1006.57
2018-06-18T04:37:14.884Z,1006.57
2018-06-18T04:38:14.907Z,1006.59
2018-06-18T04:39:14.922Z,1006.56
2018-06-18T04:40:14.945Z,1006.56
2018-06-18T04:41:14.966Z,1006.56
2018-06-18T04:42:15.032Z,1006.60
2018-06-18T04:43:15.008Z,1006.60
2018-06-18T04:44:15.025Z,1006.56
2018-06-18T04:45:15.042Z,1006.62
2018-06-18T04:46:15.063Z,1006.58
2018-06-18T04:47:15.082Z,1006.59
2018-06-18T04:48:15.153Z,1006.60
2018-06-18T04:49:15.126Z,1006.57
2018-06-18T04:50:15.143Z,1006.62
2018-06-18T04:51:15.163Z,1006.58
2018-06-18T04:52:15.174Z,1006.59
2018-06-18T04:53:15.198Z,1006.62
2018-06-18T04:54:15.274Z,1006.64
2018-06-18T04:55:15.238Z,1006.61
2018-06-18T04:56:15.262Z,1006.62
2018-06-18T04:57:15.279Z,1006.63
2018-06-18T04:58:15.297Z,1006.62
2018-06-18T04:59:15.317Z,1006.64
2018-06-18T05:00:15.387Z,1006.65
2018-06-18T05:01:15.361Z,1006.68
2018-06-18T05:02:15.376Z,1006.64
2018-06-18T05:03:15.426Z,1006.68
2018-06-18T05:04:15.414Z,1006.64
2018-06-18T05:05:15.441Z,1006.67
2018-06-18T05:06:15.503Z,1006.66
2018-06-18T05:07:15.476Z,1006.66
2018-06-18T05:08:15.498Z,1006.71
2018-06-18T05:09:15.530Z,1006.74
2018-06-18T05:10:15.539Z,1006.72
2018-06-18T05:11:15.555Z,1006.73
2018-06-18T05:12:15.632Z,1006.72
2018-06-18T05:13:15.593Z,1006.75
2018-06-18T05:14:15.617Z,1006.75
2018-06-18T05:15:15.660Z,1006.75
2018-06-18T05:16:15.657Z,1006.78
2018-06-18T05:17:15.673Z,1006.79
2018-06-18T05:18:15.744Z,1006.78
2018-06-18T05:19:15.708Z,1006.76
2018-06-18T05:20:15.748Z,1006.79
2018-06-18T05:21:15.753Z,1006.77
2018-06-18T05:22:15.778Z,1006.77
2018-06-18T05:23:15.791Z,1006.75
2018-06-18T05:24:15.867Z,1006.76
2018-06-18T05:25:15.834Z,1006.78
2018-06-18T05:26:15.856Z,1006.74
2018-06-18T05:27:15.878Z,1006.73
2018-06-18T05:28:15.895Z,1006.73
2018-06-18T05:29:15.908Z,1006.72
2018-06-18T05:30:15.981Z,1006.70
2018-06-18T05:31:15.947Z,1006.72
2018-06-18T05:32:15.974Z,1006.70
2018-06-18T05:33:15.992Z,1006.69
2018-06-18T05:34:16.073Z,1006.70
2018-06-18T05:35:16.040Z,1006.70
2018-06-18T05:36:16.106Z,1006.72
2018-06-18T05:37:16.069Z,1006.72
2018-06-18T05:38:16.087Z,1006.72
2018-06-18T05:39:16.108Z,1006.72
2018-06-18T05:40:16.132Z,1006.75
2018-06-18T05:41:16.146Z,1006.75
2018-06-18T05:42:16.222Z,1006.76
2018-06-18T05:43:16.188Z,1006.71
2018-06-18T05:44:16.211Z,1006.69
2018-06-18T05:45:16.228Z,1006.69
2018-06-18T05:46:16.325Z,1006.68
2018-06-18T05:47:16.270Z,1006.63
2018-06-18T05:48:16.340Z,1006.61
2018-06-18T05:49:16.311Z,1006.63
2018-06-18T05:50:16.326Z,1006.62
2018-06-18T05:51:16.342Z,1006.64
2018-06-18T05:52:16.371Z,1006.65
2018-06-18T05:53:16.388Z,1006.68
2018-06-18T05:54:16.454Z,1006.71
2018-06-18T05:55:16.424Z,1006.71
2018-06-18T05:56:16.441Z,1006.72
2018-06-18T05:57:16.466Z,1006.70
2018-06-18T05:58:16.488Z,1006.69
2018-06-18T05:59:16.506Z,1006.69
2018-06-18T06:00:16.580Z,1006.71
2018-06-18T06:01:16.550Z,1006.71
2018-06-18T06:02:16.567Z,1006.73
2018-06-18T06:03:16.585Z,1006.75
2018-06-18T06:04:16.604Z,1006.79
2018-06-18T06:05:16.626Z,1006.79
2018-06-18T06:06:16.696Z,1006.80
2018-06-18T06:07:16.663Z,1006.81
2018-06-18T06:08:16.688Z,1006.85
2018-06-18T06:09:16.701Z,1006.83
2018-06-18T06:10:16.723Z,1006.85
2018-06-18T06:11:16.739Z,1006.79
2018-06-18T06:12:16.810Z,1006.85
2018-06-18T06:13:16.782Z,1006.85
2018-06-18T06:14:16.801Z,1006.86
2018-06-18T06:15:16.820Z,1006.86
2018-06-18T06:16:16.837Z,1006.85
2018-06-18T06:17:16.926Z,1006.89
2018-06-18T06:18:16.931Z,1006.87
2018-06-18T06:19:16.900Z,1006.85
2018-06-18T06:20:16.922Z,1006.89
2018-06-18T06:21:16.942Z,1006.86
2018-06-18T06:22:16.963Z,1006.88
2018-06-18T06:23:16.984Z,1006.88
2018-06-18T06:24:17.054Z,1006.84
2018-06-18T06:25:17.018Z,1006.86
2018-06-18T06:26:17.038Z,1006.83
2018-06-18T06:27:17.062Z,1006.87
2018-06-18T06:28:17.084Z,1006.85
2018-06-18T06:29:17.105Z,1006.89
2018-06-18T06:30:17.171Z,1006.92
2018-06-18T06:31:17.143Z,1006.92
2018-06-18T06:32:17.165Z,1006.94
2018-06-18T06:33:17.181Z,1006.93
2018-06-18T06:34:17.204Z,1006.95
2018-06-18T06:35:17.224Z,1006.96
2018-06-18T06:36:17.292Z,1006.96
2018-06-18T06:37:17.257Z,1007.00
2018-06-18T06:38:17.286Z,1006.98
2018-06-18T06:39:17.304Z,1007.01
2018-06-18T06:40:17.319Z,1007.00
2018-06-18T06:41:17.343Z,1007.03
2018-06-18T06:42:17.446Z,1007.04
2018-06-18T06:43:17.383Z,1006.99
2018-06-18T06:44:17.408Z,1007.03
2018-06-18T06:45:17.424Z,1007.04
2018-06-18T06:46:17.445Z,1007.02
2018-06-18T06:47:17.462Z,1007.03
2018-06-18T06:48:17.602Z,1007.02
2018-06-18T06:49:17.510Z,1007.08
2018-06-18T06:50:17.532Z,1007.03
2018-06-18T06:51:17.548Z,1007.09
2018-06-18T06:52:17.571Z,1007.06
2018-06-18T06:53:17.599Z,1007.08
2018-06-18T06:54:17.672Z,1007.09
2018-06-18T06:55:17.629Z,1007.13
2018-06-18T06:56:17.672Z,1007.14
2018-06-18T06:57:17.683Z,1007.14
2018-06-18T06:58:17.694Z,1007.14
2018-06-18T06:59:17.718Z,1007.17
2018-06-18T07:00:17.794Z,1007.15
2018-06-18T07:01:17.799Z,1007.16
2018-06-18T07:02:17.787Z,1007.20
2018-06-18T07:03:17.798Z,1007.21
2018-06-18T07:04:17.819Z,1007.20
2018-06-18T07:05:17.848Z,1007.19
2018-06-18T07:06:17.938Z,1007.17
2018-06-18T07:07:17.883Z,1007.22
2018-06-18T07:08:17.910Z,1007.21
2018-06-18T07:09:17.932Z,1007.21
2018-06-18T07:10:17.958Z,1007.22
2018-06-18T07:11:17.971Z,1007.25
2018-06-18T07:12:18.051Z,1007.20
2018-06-18T07:13:18.095Z,1007.19
2018-06-18T07:14:18.044Z,1007.23
2018-06-18T07:15:18.068Z,1007.27
2018-06-18T07:16:18.088Z,1007.27
2018-06-18T07:18:18.183Z,1007.23
2018-06-18T07:19:18.151Z,1007.22
2018-06-18T07:20:18.168Z,1007.23
2018-06-18T07:21:18.190Z,1007.27
2018-06-18T07:22:18.219Z,1007.25
2018-06-18T07:23:18.233Z,1007.22
2018-06-18T07:24:18.316Z,1007.20
2018-06-18T07:25:18.281Z,1007.21
2018-06-18T07:26:18.379Z,1007.19
2018-06-18T07:27:18.328Z,1007.20
2018-06-18T07:28:18.354Z,1007.20
2018-06-18T07:29:18.371Z,1007.24
2018-06-18T07:30:18.580Z,1007.25
2018-06-18T07:31:18.413Z,1007.25
2018-06-18T07:32:18.436Z,1007.23
2018-06-18T07:33:18.461Z,1007.25
2018-06-18T07:34:18.478Z,1007.27
2018-06-18T07:35:18.501Z,1007.25
2018-06-18T07:36:18.582Z,1007.27
2018-06-18T07:37:18.547Z,1007.28
2018-06-18T07:38:18.568Z,1007.24
2018-06-18T07:39:18.598Z,1007.27
2018-06-18T07:40:18.621Z,1007.29
2018-06-18T07:41:18.638Z,1007.28
2018-06-18T07:42:18.714Z,1007.32
2018-06-18T07:43:18.686Z,1007.34
2018-06-18T07:44:18.706Z,1007.33
2018-06-18T07:45:18.841Z,1007.34
2018-06-18T07:46:18.790Z,1007.33
2018-06-18T07:47:18.775Z,1007.39
2018-06-18T07:48:18.851Z,1007.32
2018-06-18T07:49:18.819Z,1007.37
2018-06-18T07:50:18.846Z,1007.36
2018-06-18T07:51:18.947Z,1007.40
2018-06-18T07:52:18.899Z,1007.45
2018-06-18T07:53:18.914Z,1007.40
2018-06-18T07:54:18.988Z,1007.46
2018-06-18T07:55:18.958Z,1007.38
2018-06-18T07:56:18.983Z,1007.44
2018-06-18T07:57:19.000Z,1007.49
2018-06-18T07:58:19.026Z,1007.45
2018-06-18T07:59:19.049Z,1007.44
2018-06-18T08:00:19.117Z,1007.43
2018-06-18T08:01:19.101Z,1007.43
2018-06-18T08:02:19.117Z,1007.41
2018-06-18T08:03:19.137Z,1007.38
2018-06-18T08:04:19.162Z,1007.46
2018-06-18T08:05:19.181Z,1007.45
2018-06-18T08:06:19.260Z,1007.46
2018-06-18T08:07:19.226Z,1007.45
2018-06-18T08:08:19.257Z,1007.47
2018-06-18T08:09:19.278Z,1007.45
2018-06-18T08:10:19.382Z,1007.51
2018-06-18T08:11:19.329Z,1007.51
2018-06-18T08:12:19.397Z,1007.47
2018-06-18T08:13:19.368Z,1007.46
2018-06-18T08:14:19.394Z,1007.49
2018-06-18T08:15:19.417Z,1007.52
2018-06-18T08:16:19.455Z,1007.53
2018-06-18T08:17:19.466Z,1007.47
2018-06-18T08:18:19.543Z,1007.51
2018-06-18T08:19:19.508Z,1007.47
2018-06-18T08:20:19.526Z,1007.44
2018-06-18T08:21:19.550Z,1007.49
2018-06-18T08:22:19.584Z,1007.43
2018-06-18T08:23:19.598Z,1007.46
2018-06-18T08:24:19.673Z,1007.46
2018-06-18T08:25:19.651Z,1007.50
2018-06-18T08:26:19.668Z,1007.45
2018-06-18T08:27:19.696Z,1007.46
2018-06-18T08:28:19.712Z,1007.47
2018-06-18T08:29:19.741Z,1007.51
2018-06-18T08:30:19.810Z,1007.52
2018-06-18T08:31:19.787Z,1007.52
2018-06-18T08:32:19.856Z,1007.51
2018-06-18T08:33:19.833Z,1007.56
2018-06-18T08:34:19.858Z,1007.51
2018-06-18T08:35:19.881Z,1007.48
2018-06-18T08:36:19.954Z,1007.52
2018-06-18T08:37:19.926Z,1007.48
2018-06-18T08:38:19.944Z,1007.51
2018-06-18T08:39:19.969Z,1007.53
2018-06-18T08:40:19.995Z,1007.53
2018-06-18T08:41:20.088Z,1007.50
2018-06-18T08:42:20.097Z,1007.50
2018-06-18T08:44:20.093Z,1007.53
2018-06-18T08:45:20.115Z,1007.50
2018-06-18T08:46:20.146Z,1007.48
2018-06-18T08:47:20.220Z,1007.45
2018-06-18T08:48:20.233Z,1007.43
2018-06-18T08:49:20.206Z,1007.42
2018-06-18T08:50:20.237Z,1007.39
2018-06-18T08:51:20.256Z,1007.33
2018-06-18T08:52:20.283Z,1007.34
2018-06-18T08:53:20.338Z,1007.32
2018-06-18T08:54:20.378Z,1007.35
2018-06-18T08:55:20.353Z,1007.35
2018-06-18T08:56:20.379Z,1007.34
2018-06-18T08:57:20.402Z,1007.40
2018-06-18T08:58:20.432Z,1007.34
2018-06-18T08:59:20.452Z,1007.35
2018-06-18T09:00:20.533Z,1007.40
2018-06-18T09:01:20.508Z,1007.37
2018-06-18T09:02:20.527Z,1007.41
2018-06-18T09:03:20.553Z,1007.41
2018-06-18T09:04:20.575Z,1007.45
2018-06-18T09:05:20.605Z,1007.43
2018-06-18T09:06:20.711Z,1007.38
2018-06-18T09:07:20.647Z,1007.46
2018-06-18T09:08:20.671Z,1007.51
2018-06-18T09:09:20.698Z,1007.42
2018-06-18T09:10:20.732Z,1007.43
2018-06-18T09:11:20.753Z,1007.43
2018-06-18T09:12:20.845Z,1007.39
2018-06-18T09:13:20.796Z,1007.39
2018-06-18T09:14:20.820Z,1007.41
2018-06-18T09:15:20.849Z,1007.38
2018-06-18T09:16:20.876Z,1007.41
2018-06-18T09:17:20.898Z,1007.45
2018-06-18T09:18:20.925Z,1007.40
2018-06-18T09:19:20.949Z,1007.42
2018-06-18T09:20:20.971Z,1007.42
2018-06-18T09:21:20.993Z,1007.44
2018-06-18T09:22:21.022Z,1007.43
2018-06-18T09:23:21.041Z,1007.38
2018-06-18T09:24:21.063Z,1007.30
2018-06-18T09:25:21.087Z,1007.31
2018-06-18T09:26:21.122Z,1007.29
2018-06-18T09:27:21.142Z,1007.37
2018-06-18T09:28:21.166Z,1007.38
2018-06-18T09:29:21.185Z,1007.28
2018-06-18T09:30:21.270Z,1007.35
2018-06-18T09:31:21.240Z,1007.30
2018-06-18T09:32:21.490Z,1007.33
2018-06-18T09:33:21.300Z,1007.35
2018-06-18T09:34:21.304Z,1007.38
2018-06-18T09:35:21.342Z,1007.36
2018-06-18T09:36:21.410Z,1007.36
2018-06-18T09:37:21.387Z,1007.42
2018-06-18T09:38:21.401Z,1007.38
2018-06-18T09:39:21.428Z,1007.37
2018-06-18T09:40:21.453Z,1007.45
2018-06-18T09:41:21.478Z,1007.44
2018-06-18T09:42:21.501Z,1007.44
2018-06-18T09:43:21.521Z,1007.44
2018-06-18T09:44:21.547Z,1007.42
2018-06-18T09:45:21.571Z,1007.40
2018-06-18T09:46:21.597Z,1007.38
2018-06-18T09:47:21.624Z,1007.43
2018-06-18T09:48:21.699Z,1007.45
2018-06-18T09:49:21.673Z,1007.48
2018-06-18T09:50:21.695Z,1007.47
2018-06-18T09:51:21.726Z,1007.47
2018-06-18T09:52:21.743Z,1007.47
2018-06-18T09:53:21.777Z,1007.47
2018-06-18T09:54:21.794Z,1007.46
2018-06-18T09:55:21.827Z,1007.46
2018-06-18T09:56:21.848Z,1007.46
2018-06-18T09:57:21.875Z,1007.47
2018-06-18T09:58:21.900Z,1007.43
2018-06-18T09:59:21.920Z,1007.47
2018-06-18T10:00:22.002Z,1007.47
2018-06-18T10:01:21.977Z,1007.43
2018-06-18T10:02:22.001Z,1007.47
2018-06-18T10:03:22.022Z,1007.46
2018-06-18T10:04:22.050Z,1007.49
2018-06-18T10:05:22.081Z,1007.49
2018-06-18T10:06:22.106Z,1007.52
2018-06-18T10:07:22.274Z,1007.49
2018-06-18T10:08:22.292Z,1007.51
2018-06-18T10:09:22.183Z,1007.47
2018-06-18T10:10:22.207Z,1007.49
2018-06-18T10:11:22.234Z,1007.47
2018-06-18T10:12:22.463Z,1007.49
2018-06-18T10:14:22.340Z,1007.52
2018-06-18T10:15:22.335Z,1007.48
2018-06-18T10:16:22.360Z,1007.40
2018-06-18T10:17:22.383Z,1007.44
2018-06-18T10:18:22.409Z,1007.47
2018-06-18T10:19:22.476Z,1007.50
2018-06-18T10:20:22.463Z,1007.49
2018-06-18T10:21:22.489Z,1007.44
2018-06-18T10:22:22.720Z,1007.43
2018-06-18T10:23:22.545Z,1007.45
2018-06-18T10:24:22.695Z,1007.42
2018-06-18T10:25:22.647Z,1007.43
2018-06-18T10:26:22.621Z,1007.44
2018-06-18T10:27:22.643Z,1007.45
2018-06-18T10:28:22.871Z,1007.39
2018-06-18T10:29:22.907Z,1007.39
2018-06-18T10:30:22.780Z,1007.41
2018-06-18T10:31:22.782Z,1007.38
2018-06-18T10:32:22.774Z,1007.41
2018-06-18T10:33:22.800Z,1007.47
2018-06-18T10:34:22.833Z,1007.39
2018-06-18T10:35:22.855Z,1007.46
2018-06-18T10:36:22.884Z,1007.45
2018-06-18T10:37:22.912Z,1007.41
2018-06-18T10:38:22.938Z,1007.41
2018-06-18T10:39:22.961Z,1007.39
2018-06-18T10:40:22.987Z,1007.42
2018-06-18T10:41:23.017Z,1007.41
2018-06-18T10:42:23.095Z,1007.39
2018-06-18T10:43:23.068Z,1007.41
2018-06-18T10:44:23.144Z,1007.38
2018-06-18T10:45:23.126Z,1007.41
2018-06-18T10:46:23.145Z,1007.36
2018-06-18T10:47:23.172Z,1007.38
2018-06-18T10:48:23.204Z,1007.35
2018-06-18T10:49:23.233Z,1007.38
2018-06-18T10:50:23.325Z,1007.36
2018-06-18T10:51:23.297Z,1007.40
2018-06-18T10:52:23.312Z,1007.34
2018-06-18T10:53:23.386Z,1007.37
2018-06-18T10:54:23.367Z,1007.35
2018-06-18T10:55:23.397Z,1007.38
2018-06-18T10:56:23.468Z,1007.31
2018-06-18T10:57:23.446Z,1007.34
2018-06-18T10:58:23.471Z,1007.32
2018-06-18T10:59:23.561Z,1007.35
2018-06-18T11:00:23.530Z,1007.30
2018-06-18T11:01:23.553Z,1007.29
2018-06-18T11:02:23.591Z,1007.35
2018-06-18T11:03:23.613Z,1007.31
2018-06-18T11:04:23.641Z,1007.24
2018-06-18T11:05:23.717Z,1007.29
2018-06-18T11:06:23.699Z,1007.28
2018-06-18T11:07:23.718Z,1007.29
2018-06-18T11:08:23.746Z,1007.30
2018-06-18T11:09:23.839Z,1007.29
2018-06-18T11:10:23.804Z,1007.31
2018-06-18T11:11:23.833Z,1007.31
2018-06-18T11:12:23.857Z,1007.34
2018-06-18T11:13:23.885Z,1007.31
2018-06-18T11:14:23.914Z,1007.29
2018-06-18T11:15:24.000Z,1007.32
2018-06-18T11:16:24.098Z,1007.35
2018-06-18T11:17:24.414Z,1007.31
2018-06-18T11:18:24.025Z,1007.32
2018-06-18T11:19:24.053Z,1007.36
2018-06-18T11:20:24.088Z,1007.34
2018-06-18T11:21:24.134Z,1007.29
2018-06-18T11:22:24.145Z,1007.32
2018-06-18T11:23:24.220Z,1007.32
2018-06-18T11:24:24.208Z,1007.31
2018-06-18T11:25:24.228Z,1007.29
2018-06-18T11:26:24.318Z,1007.32
2018-06-18T11:27:24.290Z,1007.32
2018-06-18T11:28:24.351Z,1007.32
2018-06-18T11:29:24.445Z,1007.29
2018-06-18T11:30:24.364Z,1007.31
2018-06-18T11:31:24.400Z,1007.28
2018-06-18T11:32:24.477Z,1007.33
2018-06-18T11:33:24.449Z,1007.27
2018-06-18T11:34:24.481Z,1007.30
2018-06-18T11:35:24.560Z,1007.32
2018-06-18T11:36:24.532Z,1007.30
2018-06-18T11:37:24.564Z,1007.24
2018-06-18T11:38:24.591Z,1007.23
2018-06-18T11:39:24.673Z,1007.23
2018-06-18T11:40:24.709Z,1007.20
2018-06-18T11:41:24.724Z,1007.25
2018-06-18T11:42:24.704Z,1007.20
2018-06-18T11:43:24.807Z,1007.25
2018-06-18T11:44:24.760Z,1007.27
2018-06-18T11:45:24.790Z,1007.24
2018-06-18T11:46:24.833Z,1007.27
2018-06-18T11:47:24.896Z,1007.25
2018-06-18T11:48:24.873Z,1007.25
2018-06-18T11:49:24.907Z,1007.23
2018-06-18T11:50:24.930Z,1007.20
2018-06-18T11:51:24.960Z,1007.21
2018-06-18T11:52:24.986Z,1007.20
2018-06-18T11:53:25.020Z,1007.22
2018-06-18T11:54:25.045Z,1007.24
2018-06-18T11:55:25.078Z,1007.17
2018-06-18T11:56:25.107Z,1007.16
2018-06-18T11:57:25.135Z,1007.14
2018-06-18T11:58:25.224Z,1007.13
2018-06-18T11:59:25.237Z,1007.11
2018-06-18T12:00:25.216Z,1007.06
2018-06-18T12:01:25.316Z,1007.09
2018-06-18T12:02:25.274Z,1007.08
2018-06-18T12:03:25.308Z,1007.07
2018-06-18T12:04:25.338Z,1007.06
2018-06-18T12:05:25.367Z,1007.07
2018-06-18T12:06:25.389Z,1006.99
2018-06-18T12:07:25.424Z,1007.08
2018-06-18T12:08:25.454Z,1007.12